Time;durP1;ratioP1;P1;durP2;ratioP2;P2;SDS_P1;SDS_P2;PMS_P1;PMS_P2;Temp;Humidity;BMP_temperature;BMP_pressure;BME280_temperature;BME280_humidity;BME280_pressure;Samples;Min_cycle;Max_cycle;Signal;HPM_P1;HPM_P2
2022/09/03 00:00:12;;;;;;;;;;;;;;;19.30;43.37;99425.25;1087481;54;19983;-82
2022/09/03 00:01:15;;;;;;;;;;;;;;;19.28;43.84;99416.50;1087328;54;19943;-80
2022/09/03 00:02:21;;;;;;;;;;;;;;;19.24;43.78;99426.13;1087402;54;20740;-81
2022/09/03 00:03:26;;;;;;;;;;;;;;;19.24;43.75;99426.13;1087373;54;19943;-82
2022/09/03 00:04:35;;;;;;;;;;;;;;;19.22;43.53;99418.22;1089272;47;19970;-81
2022/09/03 00:05:39;;;;;;;;;;;;;;;19.25;43.86;99422.38;1087744;54;19975;-81
2022/09/03 00:06:45;;;;;;;;;;;;;;;19.27;43.77;99417.56;1087659;54;20578;-83
2022/09/03 00:07:51;;;;;;;;;;;;;;;19.31;43.41;99421.50;1087733;54;20527;-82
2022/09/03 00:08:59;;;;;;;;;;;;;;;19.36;43.11;99418.97;1087680;54;19965;-82
2022/09/03 00:10:02;;;;;;;;;;;;;;;19.40;43.17;99424.78;1087762;54;19969;-84
2022/09/03 00:11:12;;;;;;;;;;;;;;;19.37;44.62;99415.19;1089179;39;20618;-83
2022/09/03 00:12:15;;;;;;;;;;;;;;;19.38;44.28;99421.44;1088669;47;19942;-81
2022/09/03 00:13:21;;;;;;;;;;;;;;;19.29;45.32;99416.28;1087719;54;19950;-83
2022/09/03 00:14:27;;;;;;;;;;;;;;;19.31;44.47;99416.91;1090540;39;20638;-82
2022/09/03 00:15:31;;;;;;;;;;;;;;;19.27;45.04;99414.84;1087810;54;19949;-83
2022/09/03 00:16:38;;;;;;;;;;;;;;;19.21;45.56;99405.72;1087726;54;21181;-82
2022/09/03 00:17:44;;;;;;;;;;;;;;;19.17;45.33;99410.75;1087922;47;20031;-84
2022/09/03 00:18:48;;;;;;;;;;;;;;;19.11;45.74;99408.88;1087791;54;19939;-82
2022/09/03 00:19:56;;;;;;;;;;;;;;;19.05;46.00;99407.03;1087728;54;19986;-85
2022/09/03 00:21:07;;;;;;;;;;;;;;;19.05;45.84;99411.63;1087795;54;19939;-83
2022/09/03 00:22:12;;;;;;;;;;;;;;;19.04;45.67;99410.78;1087730;54;19943;-83
2022/09/03 00:23:20;;;;;;;;;;;;;;;19.02;45.65;99412.88;1088097;54;20677;-84
2022/09/03 00:24:24;;;;;;;;;;;;;;;18.99;45.34;99413.31;1088085;54;19942;-85
2022/09/03 00:25:30;;;;;;;;;;;;;;;18.97;45.79;99408.13;1088072;54;19942;-84
2022/09/03 00:26:34;;;;;;;;;;;;;;;18.95;45.57;99412.91;1088090;54;20042;-84
2022/09/03 00:27:40;;;;;;;;;;;;;;;18.88;45.76;99417.50;1091462;39;20977;-83
2022/09/03 00:28:44;;;;;;;;;;;;;;;18.91;45.53;99421.66;1088106;54;19970;-83
2022/09/03 00:29:53;;;;;;;;;;;;;;;18.90;45.83;99415.41;1088028;54;19949;-83
2022/09/03 00:31:05;;;;;;;;;;;;;;;18.87;46.15;99413.13;1088109;54;19946;-84
2022/09/03 00:32:12;;;;;;;;;;;;;;;18.80;46.32;99415.84;1088073;54;19973;-87
2022/09/03 00:33:17;;;;;;;;;;;;;;;18.80;46.41;99413.16;1088072;54;19934;-82
2022/09/03 00:34:25;;;;;;;;;;;;;;;18.76;46.26;99420.06;1087837;54;19942;-84
2022/09/03 00:35:30;;;;;;;;;;;;;;;18.71;46.66;99412.56;1087620;54;20010;-82
2022/09/03 00:36:40;;;;;;;;;;;;;;;18.70;46.61;99415.50;1087454;54;19942;-82
2022/09/03 00:37:42;;;;;;;;;;;;;;;18.66;46.50;99416.97;1087729;54;20240;-83
2022/09/03 00:38:45;;;;;;;;;;;;;;;18.68;46.38;99413.00;1087751;54;19942;-82
2022/09/03 00:39:47;;;;;;;;;;;;;;;18.61;46.56;99414.91;1090046;39;20460;-85
2022/09/03 00:41:00;;;;;;;;;;;;;;;18.57;46.88;99416.34;1087757;54;19927;-84
2022/09/03 00:42:09;;;;;;;;;;;;;;;18.58;46.28;99411.78;1088228;46;20863;-83
2022/09/03 00:43:17;;;;;;;;;;;;;;;18.55;46.48;99408.44;1087581;54;19949;-80
2022/09/03 00:44:44;;;;;;;;;;;;;;;18.54;46.33;99414.91;1087735;54;19950;-85
2022/09/03 00:45:58;;;;;;;;;;;;;;;18.50;46.47;99420.94;1087881;54;19967;-85
2022/09/03 00:47:01;;;;;;;;;;;;;;;18.54;45.93;99420.31;1087788;54;19942;-84
2022/09/03 00:48:09;;;;;;;;;;;;;;;18.57;46.01;99415.53;1087807;54;19942;-83
2022/09/03 00:49:25;;;;;;;;;;;;;;;18.65;45.91;99412.59;1087917;54;19949;-84
2022/09/03 00:50:36;;;;;;;;;;;;;;;18.71;45.56;99414.44;1087882;54;19943;-84
2022/09/03 00:51:42;;;;;;;;;;;;;;;18.75;45.56;99414.88;1087859;54;19943;-84
2022/09/03 00:52:49;;;;;;;;;;;;;;;18.76;45.32;99409.22;1087833;54;19994;-83
2022/09/03 00:53:57;;;;;;;;;;;;;;;18.79;45.19;99413.38;1087788;54;19943;-83
2022/09/03 00:55:04;;;;;;;;;;;;;;;18.76;45.33;99414.63;1087795;54;20626;-81
2022/09/03 00:56:14;;;;;;;;;;;;;;;18.75;45.62;99414.88;1087902;54;19966;-82
2022/09/03 00:57:28;;;;;;;;;;;;;;;18.70;45.51;99410.09;1087782;54;19942;-82
2022/09/03 00:58:36;;;;;;;;;;;;;;;18.68;45.52;99410.28;1087814;54;19950;-82
2022/09/03 00:59:44;;;;;;;;;;;;;;;18.66;45.76;99415.06;1087849;54;19949;-86
2022/09/03 01:00:45;;;;;;;;;;;;;;;18.59;45.82;99408.84;1087859;54;20668;-83
2022/09/03 01:02:01;;;;;;;;;;;;;;;18.66;45.83;99406.13;1087695;54;19942;-84
2022/09/03 01:03:06;;;;;;;;;;;;;;;18.67;45.70;99410.50;1088935;39;20534;-84
2022/09/03 01:04:20;;;;;;;;;;;;;;;18.67;46.07;99405.09;1087848;54;20690;-82
2022/09/03 01:05:28;;;;;;;;;;;;;;;18.74;45.39;99411.31;1087833;54;19966;-84
2022/09/03 01:06:37;;;;;;;;;;;;;;;18.76;45.22;99416.50;1087890;54;19998;-83
2022/09/03 01:07:45;;;;;;;;;;;;;;;18.77;45.12;99421.72;1087779;54;19950;-83
2022/09/03 01:09:10;;;;;;;;;;;;;;;18.79;45.24;99413.38;1087850;54;19950;-83
2022/09/03 01:10:24;;;;;;;;;;;;;;;18.83;45.10;99407.31;1087374;54;19949;-83
2022/09/03 01:11:32;;;;;;;;;;;;;;;18.84;45.25;99403.56;1087566;54;19943;-81
2022/09/03 01:12:39;;;;;;;;;;;;;;;18.84;45.26;99406.28;1087430;54;19954;-83
2022/09/03 01:13:43;;;;;;;;;;;;;;;18.86;45.63;99408.75;1087497;54;20006;-82
2022/09/03 01:14:52;;;;;;;;;;;;;;;18.84;45.73;99403.56;1087574;54;19934;-83
2022/09/03 01:15:58;;;;;;;;;;;;;;;18.82;45.62;99400.22;1087561;54;19943;-83
2022/09/03 01:17:09;;;;;;;;;;;;;;;18.83;45.70;99406.50;1087409;54;19943;-83
2022/09/03 01:18:14;;;;;;;;;;;;;;;18.84;45.77;99408.97;1087534;54;19968;-83
2022/09/03 01:19:31;;;;;;;;;;;;;;;18.82;46.08;99411.06;1087558;54;19967;-84
2022/09/03 01:20:35;;;;;;;;;;;;;;;18.83;46.15;99414.63;1087948;46;19942;-83
2022/09/03 01:21:46;;;;;;;;;;;;;;;18.83;46.27;99409.19;1087541;54;19943;-84
2022/09/03 01:23:02;;;;;;;;;;;;;;;18.82;46.12;99412.94;1087535;54;20018;-84
2022/09/03 01:24:22;;;;;;;;;;;;;;;18.82;45.90;99413.78;1087669;54;19954;-84
2022/09/03 01:25:31;;;;;;;;;;;;;;;18.82;46.11;99412.94;1087403;54;19943;-84
2022/09/03 01:26:49;;;;;;;;;;;;;;;18.77;46.18;99413.59;1087465;54;19965;-84
2022/09/03 01:28:01;;;;;;;;;;;;;;;18.75;46.38;99410.25;1087492;54;19942;-83
2022/09/03 01:29:11;;;;;;;;;;;;;;;18.69;46.48;99405.72;1087483;54;19968;-81
2022/09/03 01:30:17;;;;;;;;;;;;;;;18.73;46.00;99414.25;1087485;54;20698;-84
2022/09/03 01:31:25;;;;;;;;;;;;;;;18.74;45.98;99416.72;1090609;46;19942;-83
2022/09/03 01:32:31;;;;;;;;;;;;;;;18.78;46.17;99420.69;1087500;54;19977;-83
2022/09/03 01:33:38;;;;;;;;;;;;;;;18.80;46.14;99415.84;1087443;54;20004;-85
2022/09/03 01:34:46;;;;;;;;;;;;;;;18.82;45.98;99419.19;1087388;54;19954;-86
2022/09/03 01:35:55;;;;;;;;;;;;;;;18.84;46.07;99422.50;1087618;54;19983;-84
2022/09/03 01:37:04;;;;;;;;;;;;;;;18.85;46.08;99418.75;1087488;54;19943;-84
2022/09/03 01:38:16;;;;;;;;;;;;;;;18.88;45.98;99413.97;1087858;54;19942;-85
2022/09/03 01:39:21;;;;;;;;;;;;;;;18.88;45.64;99416.69;1087522;54;19943;-84
2022/09/03 01:40:32;;;;;;;;;;;;;;;18.89;45.84;99412.94;1087809;54;19982;-83
2022/09/03 01:43:19;;;;;;;;;;;;;;;18.82;46.37;99415.66;1087823;54;19966;-82
2022/09/03 01:44:26;;;;;;;;;;;;;;;18.83;46.15;99418.16;1087812;54;19950;-84
2022/09/03 01:45:48;;;;;;;;;;;;;;;18.84;45.94;99421.69;1087762;54;20812;-83
2022/09/03 01:46:54;;;;;;;;;;;;;;;18.76;46.47;99411.94;1087717;54;19927;-83
2022/09/03 01:48:07;;;;;;;;;;;;;;;18.68;46.66;99412.16;1087826;54;20044;-84
2022/09/03 01:49:12;;;;;;;;;;;;;;;18.65;46.28;99413.44;1087797;54;20635;-82
2022/09/03 01:50:21;;;;;;;;;;;;;;;18.56;46.83;99403.88;1087729;54;19943;-85
2022/09/03 01:51:25;;;;;;;;;;;;;;;18.52;46.77;99411.56;1087812;54;19974;-85
2022/09/03 01:52:34;;;;;;;;;;;;;;;18.52;46.35;99406.16;1087873;54;20014;-84
2022/09/03 01:53:47;;;;;;;;;;;;;;;18.47;47.01;99411.38;1087942;54;19949;-84
2022/09/03 01:54:57;;;;;;;;;;;;;;;18.46;46.65;99415.13;1087950;54;19942;-83
2022/09/03 01:56:13;;;;;;;;;;;;;;;18.49;46.43;99411.16;1087981;54;19942;-85
2022/09/03 01:57:33;;;;;;;;;;;;;;;18.49;46.40;99412.03;1087849;54;19926;-82
2022/09/03 01:58:42;;;;;;;;;;;;;;;18.47;46.59;99414.09;1087586;54;19942;-85
2022/09/03 01:59:48;;;;;;;;;;;;;;;18.47;46.54;99416.81;1100229;31;20693;-85
2022/09/03 02:00:55;;;;;;;;;;;;;;;18.46;46.76;99414.31;1087878;54;19949;-84
2022/09/03 02:02:00;;;;;;;;;;;;;;;18.44;46.52;99416.41;1087870;54;19974;-87
2022/09/03 02:03:06;;;;;;;;;;;;;;;18.41;46.82;99412.25;1088024;54;19943;-86
2022/09/03 02:04:16;;;;;;;;;;;;;;;18.45;46.42;99415.38;1088004;54;19951;-82
2022/09/03 02:05:23;;;;;;;;;;;;;;;18.39;46.72;99417.03;1087933;54;19942;-83
2022/09/03 02:06:25;;;;;;;;;;;;;;;18.42;46.59;99419.28;1088058;54;19934;-84
2022/09/03 02:07:33;;;;;;;;;;;;;;;18.45;46.83;99416.19;1087908;54;19950;-85
2022/09/03 02:08:35;;;;;;;;;;;;;;;18.38;46.95;99418.06;1087949;54;19950;-86
2022/09/03 02:09:39;;;;;;;;;;;;;;;18.36;47.03;99420.16;1087944;54;19942;-84
2022/09/03 02:10:43;;;;;;;;;;;;;;;18.31;47.00;99417.25;1088379;46;19942;-84
2022/09/03 02:11:48;;;;;;;;;;;;;;;18.32;46.89;99424.34;1087949;54;19927;-85
2022/09/03 02:12:51;;;;;;;;;;;;;;;18.31;46.83;99423.50;1087989;54;19943;-85
2022/09/03 02:13:59;;;;;;;;;;;;;;;18.37;46.39;99422.63;1087855;54;19943;-84
2022/09/03 02:15:02;;;;;;;;;;;;;;;18.42;46.52;99426.59;1087885;54;19955;-83
2022/09/03 02:16:11;;;;;;;;;;;;;;;18.46;45.93;99425.97;1087950;54;19949;-83
2022/09/03 02:17:13;;;;;;;;;;;;;;;18.50;46.23;99432.63;1087786;54;19942;-85
2022/09/03 02:18:18;;;;;;;;;;;;;;;18.51;46.31;99425.31;1087870;54;19998;-82
2022/09/03 02:19:20;;;;;;;;;;;;;;;18.53;46.10;99426.78;1087913;54;19970;-84
2022/09/03 02:20:25;;;;;;;;;;;;;;;18.55;46.08;99427.41;1087877;54;20028;-83
2022/09/03 02:21:30;;;;;;;;;;;;;;;18.56;45.96;99425.53;1087938;54;19943;-84
2022/09/03 02:22:34;;;;;;;;;;;;;;;18.58;46.06;99428.84;1087891;54;19991;-83
2022/09/03 02:23:38;;;;;;;;;;;;;;;18.59;46.08;99416.16;1087891;54;19942;-83
2022/09/03 02:24:42;;;;;;;;;;;;;;;18.63;45.96;99425.50;1087944;54;19927;-83
2022/09/03 02:25:46;;;;;;;;;;;;;;;18.66;45.99;99417.78;1087869;54;19943;-84
2022/09/03 02:26:50;;;;;;;;;;;;;;;18.67;46.29;99422.16;1089277;46;19954;-83
2022/09/03 02:27:52;;;;;;;;;;;;;;;18.64;46.15;99422.59;1087951;54;19942;-83
2022/09/03 02:28:59;;;;;;;;;;;;;;;18.64;46.13;99422.59;1087900;54;19943;-84
2022/09/03 02:30:00;;;;;;;;;;;;;;;18.65;46.29;99423.41;1087842;54;20027;-82
2022/09/03 02:31:04;;;;;;;;;;;;;;;18.61;46.62;99422.19;1087885;54;19949;-83
2022/09/03 02:32:05;;;;;;;;;;;;;;;18.56;46.92;99414.72;1087914;54;20689;-82
2022/09/03 02:33:09;;;;;;;;;;;;;;;18.59;46.58;99419.69;1090873;39;20135;-85
2022/09/03 02:34:10;;;;;;;;;;;;;;;18.55;46.60;99413.88;1087926;54;19950;-85
2022/09/03 02:35:14;;;;;;;;;;;;;;;18.51;46.86;99411.78;1087819;54;19942;-82
2022/09/03 02:36:17;;;;;;;;;;;;;;;18.47;46.94;99413.25;1087875;54;19943;-84
2022/09/03 02:37:21;;;;;;;;;;;;;;;18.40;47.04;99410.59;1087800;54;19934;-82
2022/09/03 02:38:24;;;;;;;;;;;;;;;18.38;47.44;99407.25;1087844;54;19949;-84
2022/09/03 02:39:29;;;;;;;;;;;;;;;18.37;47.62;99416.41;1087781;54;19942;-82
2022/09/03 02:40:30;;;;;;;;;;;;;;;18.36;47.37;99414.75;1091907;39;20175;-84
2022/09/03 02:41:36;;;;;;;;;;;;;;;18.40;47.21;99410.59;1087905;54;19942;-86
2022/09/03 02:42:37;;;;;;;;;;;;;;;18.40;47.19;99411.41;1087922;54;19942;-84
2022/09/03 02:43:43;;;;;;;;;;;;;;;18.41;47.22;99412.25;1087788;54;19942;-85
2022/09/03 02:44:52;;;;;;;;;;;;;;;18.39;47.11;99414.34;1088008;54;19950;-85
2022/09/03 02:45:57;;;;;;;;;;;;;;;18.44;46.88;99406.41;1087883;54;19969;-85
2022/09/03 02:46:59;;;;;;;;;;;;;;;18.44;47.01;99406.41;1087931;54;19942;-84
2022/09/03 02:48:03;;;;;;;;;;;;;;;18.44;47.07;99414.50;1092948;39;21000;-87
2022/09/03 02:49:04;;;;;;;;;;;;;;;18.48;46.94;99417.63;1087880;54;19942;-85
2022/09/03 02:50:09;;;;;;;;;;;;;;;18.53;46.63;99417.84;1087880;54;19945;-85
2022/09/03 02:51:12;;;;;;;;;;;;;;;18.58;46.53;99422.59;1087946;54;19943;-85
2022/09/03 02:52:15;;;;;;;;;;;;;;;18.57;46.87;99420.94;1087879;54;19942;-85
2022/09/03 02:53:19;;;;;;;;;;;;;;;18.58;46.75;99423.44;1087967;54;19982;-84
2022/09/03 02:54:20;;;;;;;;;;;;;;;18.53;46.60;99415.94;1087878;54;19943;-85
2022/09/03 02:55:24;;;;;;;;;;;;;;;18.54;46.13;99414.91;1087959;54;19942;-84
2022/09/03 02:56:26;;;;;;;;;;;;;;;18.54;46.48;99420.31;1090958;39;20995;-85
2022/09/03 02:57:30;;;;;;;;;;;;;;;18.58;46.09;99419.91;1087864;54;19950;-85
2022/09/03 02:58:31;;;;;;;;;;;;;;;18.60;46.12;99415.94;1087877;54;19943;-84
2022/09/03 02:59:35;;;;;;;;;;;;;;;18.62;46.11;99413.00;1087861;54;19950;-85
2022/09/03 03:00:41;;;;;;;;;;;;;;;18.66;46.23;99422.38;1087906;54;19942;-85
2022/09/03 03:01:43;;;;;;;;;;;;;;;18.67;46.31;99416.75;1090253;46;19942;-85
2022/09/03 03:02:47;;;;;;;;;;;;;;;18.69;46.01;99419.25;1087877;54;20176;-84
2022/09/03 03:03:50;;;;;;;;;;;;;;;18.67;46.37;99415.91;1087916;54;19934;-85
2022/09/03 03:04:53;;;;;;;;;;;;;;;18.67;46.15;99414.03;1087906;54;19943;-83
2022/09/03 03:05:58;;;;;;;;;;;;;;;18.68;46.29;99413.00;1087851;54;19942;-83
2022/09/03 03:06:59;;;;;;;;;;;;;;;18.64;46.81;99411.78;1087787;54;19943;-83
2022/09/03 03:08:03;;;;;;;;;;;;;;;18.63;46.76;99406.56;1087942;54;19949;-85
2022/09/03 03:09:04;;;;;;;;;;;;;;;18.63;46.82;99410.09;1087822;54;19954;-83
2022/09/03 03:10:09;;;;;;;;;;;;;;;18.63;46.85;99403.84;1089007;47;20654;-86
2022/09/03 03:11:10;;;;;;;;;;;;;;;18.65;46.41;99405.31;1087809;54;19934;-85
2022/09/03 03:12:14;;;;;;;;;;;;;;;18.65;46.65;99397.19;1087678;54;19943;-87
2022/09/03 03:13:16;;;;;;;;;;;;;;;18.59;46.94;99399.91;1087706;54;19942;-84
2022/09/03 03:14:20;;;;;;;;;;;;;;;18.63;46.44;99403.84;1089910;47;19943;-83
2022/09/03 03:15:21;;;;;;;;;;;;;;;18.64;46.63;99397.38;1087726;54;19950;-83
2022/09/03 03:16:29;;;;;;;;;;;;;;;18.66;46.76;99403.44;1087880;54;19942;-85
2022/09/03 03:17:30;;;;;;;;;;;;;;;18.67;46.35;99405.09;1087708;54;19938;-85
2022/09/03 03:18:34;;;;;;;;;;;;;;;18.73;46.12;99406.94;1087945;54;19950;-88
2022/09/03 03:19:38;;;;;;;;;;;;;;;18.75;46.36;99407.56;1091402;39;20676;-84
2022/09/03 03:20:39;;;;;;;;;;;;;;;18.78;46.08;99415.25;1087916;54;19942;-86
2022/09/03 03:21:43;;;;;;;;;;;;;;;18.78;46.08;99412.56;1087836;54;19942;-85
2022/09/03 03:22:45;;;;;;;;;;;;;;;18.79;46.30;99397.97;1087741;54;19942;-84
2022/09/03 03:23:49;;;;;;;;;;;;;;;18.72;46.60;99402.56;1089807;39;20693;-83
2022/09/03 03:24:51;;;;;;;;;;;;;;;18.63;46.59;99404.69;1089278;47;19950;-84
2022/09/03 03:25:55;;;;;;;;;;;;;;;18.64;46.49;99394.69;1087641;54;19950;-82
2022/09/03 03:26:56;;;;;;;;;;;;;;;18.59;46.52;99397.22;1087568;54;19943;-83
2022/09/03 03:28:00;;;;;;;;;;;;;;;18.58;46.62;99400.97;1087678;54;20654;-85
2022/09/03 03:29:03;;;;;;;;;;;;;;;18.56;46.44;99401.19;1087732;54;19943;-84
2022/09/03 03:30:09;;;;;;;;;;;;;;;18.60;46.19;99405.09;1087641;54;19978;-84
2022/09/03 03:31:11;;;;;;;;;;;;;;;18.62;46.16;99403.03;1087738;54;19943;-84
2022/09/03 03:32:17;;;;;;;;;;;;;;;18.62;46.53;99403.03;1087679;54;19954;-85
2022/09/03 03:33:18;;;;;;;;;;;;;;;18.61;47.05;99411.38;1087704;54;19931;-83
2022/09/03 03:34:22;;;;;;;;;;;;;;;18.63;46.67;99411.97;1087711;54;19942;-83
2022/09/03 03:35:23;;;;;;;;;;;;;;;18.64;46.56;99419.88;1087665;54;19943;-83
2022/09/03 03:36:28;;;;;;;;;;;;;;;18.64;46.59;99419.03;1087679;54;19943;-83
2022/09/03 03:39:46;;;;;;;;;;;;;;;18.68;46.71;99417.59;1087554;54;20590;-84
2022/09/03 03:40:47;;;;;;;;;;;;;;;18.68;46.79;99417.59;1087503;54;19943;-83
2022/09/03 03:41:51;;;;;;;;;;;;;;;18.71;46.51;99422.56;1094164;39;20581;-82
2022/09/03 03:42:52;;;;;;;;;;;;;;;18.68;46.78;99423.00;1087498;54;19950;-83
2022/09/03 03:43:56;;;;;;;;;;;;;;;18.69;46.75;99424.66;1087567;54;19927;-84
2022/09/03 03:44:57;;;;;;;;;;;;;;;18.69;46.55;99430.06;1087580;54;19943;-81
2022/09/03 03:46:01;;;;;;;;;;;;;;;18.68;46.90;99420.28;1087556;54;19949;-82
2022/09/03 03:47:04;;;;;;;;;;;;;;;18.70;46.78;99424.44;1087493;54;19942;-82
2022/09/03 03:48:11;;;;;;;;;;;;;;;18.72;46.59;99429.63;1087567;54;20015;-81
2022/09/03 03:49:12;;;;;;;;;;;;;;;18.67;46.68;99429.44;1087558;54;19943;-83
2022/09/03 03:50:16;;;;;;;;;;;;;;;18.68;46.57;99423.00;1087529;54;19950;-81
2022/09/03 03:51:17;;;;;;;;;;;;;;;18.70;46.72;99426.34;1090456;39;20184;-82
2022/09/03 03:52:21;;;;;;;;;;;;;;;18.70;46.82;99426.34;1087488;54;20669;-82
2022/09/03 03:53:22;;;;;;;;;;;;;;;18.73;46.55;99423.19;1087536;54;19950;-83
2022/09/03 03:54:26;;;;;;;;;;;;;;;18.71;46.80;99426.09;1087546;54;19950;-82
2022/09/03 03:55:27;;;;;;;;;;;;;;;18.68;46.56;99417.59;1087525;54;19943;-84
2022/09/03 03:56:30;;;;;;;;;;;;;;;18.66;46.71;99425.09;1087454;54;19943;-82
2022/09/03 03:57:31;;;;;;;;;;;;;;;18.62;46.70;99421.13;1087917;47;19942;-83
2022/09/03 03:58:36;;;;;;;;;;;;;;;18.57;46.50;99418.25;1087820;54;19950;-81
2022/09/03 03:59:37;;;;;;;;;;;;;;;18.55;46.50;99413.03;1087869;54;19966;-82
2022/09/03 04:00:40;;;;;;;;;;;;;;;18.54;46.38;99423.03;1087880;54;19943;-82
2022/09/03 04:01:42;;;;;;;;;;;;;;;18.56;46.40;99428.25;1087759;54;19942;-82
2022/09/03 04:02:46;;;;;;;;;;;;;;;18.59;46.57;99427.81;1087845;54;19942;-81
2022/09/03 04:03:50;;;;;;;;;;;;;;;18.55;46.66;99419.28;1087880;54;19958;-82
2022/09/03 04:04:53;;;;;;;;;;;;;;;18.52;46.50;99418.88;1087906;54;19943;-81
2022/09/03 04:05:55;;;;;;;;;;;;;;;18.50;46.68;99415.53;1087862;54;19943;-82
2022/09/03 04:06:58;;;;;;;;;;;;;;;18.52;46.88;99419.69;1087813;54;19942;-83
2022/09/03 04:08:01;;;;;;;;;;;;;;;18.49;46.86;99417.44;1089300;39;20705;-80
2022/09/03 04:09:04;;;;;;;;;;;;;;;18.51;47.00;99417.22;1088269;46;19942;-83
2022/09/03 04:10:06;;;;;;;;;;;;;;;18.56;46.66;99422.84;1087868;54;19951;-83
2022/09/03 04:11:11;;;;;;;;;;;;;;;18.57;46.70;99427.19;1087859;54;19950;-81
2022/09/03 04:12:12;;;;;;;;;;;;;;;18.58;46.72;99423.44;1088954;46;19942;-82
2022/09/03 04:13:16;;;;;;;;;;;;;;;18.59;46.89;99422.38;1088037;54;19938;-83
2022/09/03 04:14:17;;;;;;;;;;;;;;;18.61;46.50;99430.31;1087971;54;19949;-81
2022/09/03 04:15:21;;;;;;;;;;;;;;;18.64;46.45;99417.19;1088002;54;19934;-83
2022/09/03 04:16:23;;;;;;;;;;;;;;;18.65;46.29;99423.41;1088051;54;19943;-83
2022/09/03 04:17:26;;;;;;;;;;;;;;;18.68;46.22;99423.00;1087889;54;19943;-83
2022/09/03 04:18:27;;;;;;;;;;;;;;;18.66;46.14;99423.19;1088021;54;19943;-83
2022/09/03 04:19:34;;;;;;;;;;;;;;;18.68;46.07;99431.13;1087986;54;19942;-81
2022/09/03 04:20:35;;;;;;;;;;;;;;;18.70;46.09;99427.16;1088032;54;19949;-82
2022/09/03 04:21:39;;;;;;;;;;;;;;;18.72;46.10;99424.22;1087989;54;19942;-82
2022/09/03 04:22:40;;;;;;;;;;;;;;;18.71;46.36;99422.56;1087966;54;19942;-81
2022/09/03 04:23:45;;;;;;;;;;;;;;;18.69;46.19;99417.38;1087987;54;19942;-84
2022/09/03 04:24:46;;;;;;;;;;;;;;;18.70;46.31;99418.22;1087898;54;19943;-82
2022/09/03 04:25:53;;;;;;;;;;;;;;;18.70;46.60;99420.91;1087998;54;19942;-82
2022/09/03 04:26:54;;;;;;;;;;;;;;;18.70;46.65;99407.38;1088028;54;19942;-81
2022/09/03 04:27:58;;;;;;;;;;;;;;;18.72;46.55;99416.09;1087969;54;20673;-82
2022/09/03 04:29:00;;;;;;;;;;;;;;;18.73;46.51;99423.19;1088052;54;19942;-81
2022/09/03 04:30:04;;;;;;;;;;;;;;;18.74;46.85;99422.13;1088010;54;19949;-82
2022/09/03 04:31:06;;;;;;;;;;;;;;;18.73;46.74;99414.25;1091548;39;20978;-83
2022/09/03 04:33:26;;;;;;;;;;;;;;;18.72;47.23;99418.81;1088060;54;20004;-82
2022/09/03 04:34:28;;;;;;;;;;;;;;;18.74;47.08;99415.91;1090123;39;20518;-82
2022/09/03 04:35:34;;;;;;;;;;;;;;;18.76;46.78;99421.91;1087913;54;19927;-81
2022/09/03 04:36:36;;;;;;;;;;;;;;;18.77;46.98;99416.31;1088019;54;19966;-82
2022/09/03 04:37:40;;;;;;;;;;;;;;;18.74;46.71;99424.03;1087918;54;19942;-84
2022/09/03 04:38:42;;;;;;;;;;;;;;;18.72;47.00;99413.38;1087838;54;19942;-81
2022/09/03 04:39:46;;;;;;;;;;;;;;;18.70;47.07;99421.72;1087795;54;19942;-83
2022/09/03 04:40:51;;;;;;;;;;;;;;;18.73;46.98;99420.47;1087940;54;19949;-84
2022/09/03 04:41:54;;;;;;;;;;;;;;;18.69;46.90;99424.66;1087975;54;19943;-80
2022/09/03 04:42:56;;;;;;;;;;;;;;;18.61;47.92;99422.19;1087912;54;19943;-83
2022/09/03 04:44:00;;;;;;;;;;;;;;;18.58;47.93;99422.59;1088027;54;19950;-83
2022/09/03 04:45:01;;;;;;;;;;;;;;;18.58;47.68;99422.59;1088013;54;19966;-85
2022/09/03 04:46:06;;;;;;;;;;;;;;;18.56;48.08;99420.13;1087934;54;20567;-84
2022/09/03 04:47:09;;;;;;;;;;;;;;;18.57;47.90;99419.06;1087868;54;19946;-85
2022/09/03 04:48:13;;;;;;;;;;;;;;;18.58;47.86;99425.31;1087994;54;19949;-83
2022/09/03 04:49:15;;;;;;;;;;;;;;;18.58;48.10;99419.91;1087950;54;19967;-85
2022/09/03 04:50:19;;;;;;;;;;;;;;;18.61;47.83;99422.19;1087972;54;19949;-84
2022/09/03 04:51:26;;;;;;;;;;;;;;;18.61;47.66;99425.72;1087921;54;19942;-85
2022/09/03 04:52:32;;;;;;;;;;;;;;;18.61;47.57;99425.72;1088867;39;20597;-84
2022/09/03 04:53:33;;;;;;;;;;;;;;;18.64;47.87;99432.56;1088014;54;19951;-82
2022/09/03 04:54:41;;;;;;;;;;;;;;;18.64;47.43;99432.56;1087990;54;19927;-83
2022/09/03 04:55:43;;;;;;;;;;;;;;;18.60;47.97;99425.94;1087954;54;19942;-84
2022/09/03 04:56:46;;;;;;;;;;;;;;;18.60;47.91;99431.34;1087995;54;19949;-84
2022/09/03 04:57:47;;;;;;;;;;;;;;;18.62;47.84;99434.66;1087891;54;19943;-85
2022/09/03 04:58:55;;;;;;;;;;;;;;;18.62;47.83;99431.94;1087926;54;19927;-86
2022/09/03 04:59:56;;;;;;;;;;;;;;;18.57;48.21;99432.59;1088037;54;19943;-84
2022/09/03 05:01:00;;;;;;;;;;;;;;;18.56;47.94;99441.78;1087898;54;20003;-85
2022/09/03 05:02:02;;;;;;;;;;;;;;;18.56;48.16;99441.78;1087966;54;19950;-86
2022/09/03 05:03:06;;;;;;;;;;;;;;;18.57;48.23;99443.41;1087941;54;20594;-85
2022/09/03 05:04:10;;;;;;;;;;;;;;;18.57;47.96;99442.59;1087908;54;19976;-84
2022/09/03 05:05:11;;;;;;;;;;;;;;;18.55;47.82;99445.53;1088011;54;19965;-85
2022/09/03 05:06:15;;;;;;;;;;;;;;;18.54;48.07;99436.56;1088008;54;19974;-83
2022/09/03 05:07:22;;;;;;;;;;;;;;;18.52;48.10;99441.34;1087947;54;19943;-84
2022/09/03 05:08:24;;;;;;;;;;;;;;;18.48;48.27;99437.41;1087913;54;19957;-83
2022/09/03 05:09:28;;;;;;;;;;;;;;;18.51;47.85;99434.28;1087753;54;20672;-85
2022/09/03 05:10:29;;;;;;;;;;;;;;;18.51;47.80;99428.88;1088031;54;19943;-84
2022/09/03 05:11:33;;;;;;;;;;;;;;;18.51;47.75;99434.28;1088002;54;19942;-85
2022/09/03 05:12:34;;;;;;;;;;;;;;;18.52;48.10;99430.50;1087986;54;20677;-83
2022/09/03 05:13:38;;;;;;;;;;;;;;;18.53;48.05;99428.66;1088001;54;19998;-83
2022/09/03 05:14:40;;;;;;;;;;;;;;;18.55;47.98;99427.41;1087986;54;19931;-85
2022/09/03 05:15:44;;;;;;;;;;;;;;;18.58;47.87;99434.25;1087947;54;20582;-82
2022/09/03 05:16:45;;;;;;;;;;;;;;;18.59;47.61;99429.69;1087993;54;19974;-87
2022/09/03 05:17:51;;;;;;;;;;;;;;;18.58;48.20;99433.44;1087904;54;19986;-84
2022/09/03 05:18:53;;;;;;;;;;;;;;;18.48;48.22;99440.13;1088005;54;19949;-83
2022/09/03 05:19:57;;;;;;;;;;;;;;;18.48;48.30;99434.72;1087973;54;19927;-85
2022/09/03 05:20:59;;;;;;;;;;;;;;;18.47;48.17;99437.59;1091330;31;20637;-84
2022/09/03 05:22:03;;;;;;;;;;;;;;;18.52;48.15;99441.34;1087931;54;21045;-84
2022/09/03 05:23:07;;;;;;;;;;;;;;;18.58;48.07;99447.78;1087890;54;19945;-84
2022/09/03 05:24:11;;;;;;;;;;;;;;;18.61;47.66;99450.06;1087987;54;19966;-84
2022/09/03 05:25:12;;;;;;;;;;;;;;;18.60;47.72;99442.19;1087988;54;19942;-85
2022/09/03 05:26:18;;;;;;;;;;;;;;;18.61;47.73;99443.84;1087982;54;19927;-85
2022/09/03 05:27:19;;;;;;;;;;;;;;;18.57;48.24;99448.81;1087824;54;19942;-84
2022/09/03 05:28:23;;;;;;;;;;;;;;;18.56;48.02;99447.19;1088004;54;19949;-85
2022/09/03 05:29:25;;;;;;;;;;;;;;;18.58;48.24;99446.97;1087985;54;19949;-84
2022/09/03 05:30:29;;;;;;;;;;;;;;;18.58;48.18;99441.56;1089005;39;20564;-85
2022/09/03 05:31:30;;;;;;;;;;;;;;;18.55;48.65;99449.06;1087989;54;19943;-85
2022/09/03 05:32:34;;;;;;;;;;;;;;;18.54;48.67;99441.16;1087898;54;19949;-85
2022/09/03 05:33:36;;;;;;;;;;;;;;;18.53;48.42;99451.13;1087930;54;19942;-84
2022/09/03 05:34:40;;;;;;;;;;;;;;;18.55;48.54;99451.75;1087977;54;19943;-86
2022/09/03 05:35:41;;;;;;;;;;;;;;;18.53;48.75;99453.84;1087949;54;19942;-85
2022/09/03 05:36:47;;;;;;;;;;;;;;;18.53;48.69;99450.31;1087934;54;19971;-86
2022/09/03 05:37:48;;;;;;;;;;;;;;;18.48;49.29;99445.53;1087924;54;19957;-85
2022/09/03 05:38:56;;;;;;;;;;;;;;;18.43;49.45;99448.03;1088760;39;20566;-84
2022/09/03 05:39:57;;;;;;;;;;;;;;;18.46;48.91;99453.03;1087973;54;19966;-86
2022/09/03 05:41:01;;;;;;;;;;;;;;;18.45;49.02;99445.94;1087958;54;19927;-85
2022/09/03 05:42:05;;;;;;;;;;;;;;;18.45;49.30;99445.94;1087943;54;19967;-83
2022/09/03 05:43:06;;;;;;;;;;;;;;;18.45;49.23;99454.06;1087877;54;19943;-84
2022/09/03 05:44:11;;;;;;;;;;;;;;;18.44;49.54;99452.41;1088715;46;19985;-85